Terminal Aerodrome Forecast
Issued by NWS

Home | Current Version | Previous Version | Graphics & Text | Print | Product List | Glossary On
Versions: 1 2 3 4 5 6 7 8 9 10 11 12 13 14 15 16
000
FTUS43 KIWX 271700
TAFSBN
TAF
KSBN 271730Z 2718/2818 01008KT P6SM SCT250
     FM280200 04003KT P6SM SCT150
     FM281400 09006KT P6SM BKN250=

USA.gov is the U.S. government's official web portal to all federal, state and local government web resources and services.